createdAt,value
2022-09-16T04:00:28.842Z,16.30
2022-09-16T04:01:28.812Z,16.28
2022-09-16T04:02:28.790Z,16.31
2022-09-16T04:03:33.104Z,16.30
2022-09-16T04:04:28.734Z,16.34
2022-09-16T04:05:28.732Z,16.30
2022-09-16T04:06:28.715Z,16.27
2022-09-16T04:07:28.703Z,16.25
2022-09-16T04:08:28.694Z,16.28
2022-09-16T04:09:28.679Z,16.21
2022-09-16T04:10:28.677Z,16.15
2022-09-16T04:11:33.703Z,16.15
2022-09-16T04:12:28.656Z,16.11
2022-09-16T04:13:28.656Z,16.14
2022-09-16T04:14:28.623Z,16.12
2022-09-16T04:15:28.623Z,16.17
2022-09-16T04:16:28.625Z,16.11
2022-09-16T04:17:28.589Z,16.20
2022-09-16T04:18:28.614Z,16.17
2022-09-16T04:19:28.564Z,16.12
2022-09-16T04:20:28.580Z,16.14
2022-09-16T04:21:28.542Z,16.14
2022-09-16T04:22:33.579Z,16.14
2022-09-16T04:23:28.520Z,16.05
2022-09-16T04:24:28.512Z,16.08
2022-09-16T04:25:28.553Z,16.09
2022-09-16T04:26:28.493Z,16.11
2022-09-16T04:27:28.475Z,16.09
2022-09-16T04:28:28.483Z,16.12
2022-09-16T04:29:28.454Z,16.15
2022-09-16T04:30:28.461Z,16.12
2022-09-16T04:31:28.506Z,16.07
2022-09-16T04:32:28.443Z,16.08
2022-09-16T04:33:33.431Z,16.00
2022-09-16T04:34:28.403Z,16.00
2022-09-16T04:35:28.388Z,15.96
2022-09-16T04:36:28.391Z,15.96
2022-09-16T04:37:28.363Z,15.94
2022-09-16T04:38:28.360Z,16.07
2022-09-16T04:39:28.343Z,15.96
2022-09-16T04:40:28.390Z,16.08
2022-09-16T04:41:28.330Z,16.00
2022-09-16T04:42:28.312Z,15.97
2022-09-16T04:43:28.451Z,16.01
2022-09-16T04:44:33.308Z,16.00
2022-09-16T04:45:28.273Z,15.94
2022-09-16T04:46:28.339Z,16.00
2022-09-16T04:47:28.257Z,15.96
2022-09-16T04:48:28.264Z,15.94
2022-09-16T04:49:28.229Z,15.97
2022-09-16T04:50:28.227Z,15.96
2022-09-16T04:51:28.224Z,16.01
2022-09-16T04:52:28.198Z,15.97
2022-09-16T04:53:28.188Z,16.00
2022-09-16T04:54:28.175Z,16.00
2022-09-16T04:55:33.188Z,16.00
2022-09-16T04:56:28.170Z,16.02
2022-09-16T04:57:28.143Z,15.94
2022-09-16T04:58:28.141Z,15.83
2022-09-16T04:59:28.120Z,15.87
2022-09-16T05:00:28.107Z,15.90
2022-09-16T05:01:28.175Z,15.93
2022-09-16T05:02:28.084Z,15.87
2022-09-16T05:03:28.182Z,15.93
2022-09-16T05:04:28.082Z,15.92
2022-09-16T05:05:28.050Z,15.90
2022-09-16T05:06:33.071Z,15.87
2022-09-16T05:07:28.027Z,15.92
2022-09-16T05:08:28.026Z,15.90
2022-09-16T05:09:28.005Z,15.89
2022-09-16T05:10:28.007Z,15.90
2022-09-16T05:11:28.023Z,15.92
2022-09-16T05:12:27.988Z,15.84
2022-09-16T05:13:27.973Z,15.90
2022-09-16T05:14:28.002Z,15.87
2022-09-16T05:15:27.939Z,15.84
2022-09-16T05:16:28.008Z,15.84
2022-09-16T05:17:50.482Z,15.78
2022-09-16T05:18:28.907Z,15.78
2022-09-16T05:19:27.927Z,15.74
2022-09-16T05:20:28.002Z,15.75
2022-09-16T05:21:27.896Z,15.72
2022-09-16T05:22:27.862Z,15.74
2022-09-16T05:23:27.911Z,15.68
2022-09-16T05:24:27.845Z,15.69
2022-09-16T05:25:27.829Z,15.62
2022-09-16T05:26:27.835Z,15.64
2022-09-16T05:27:27.803Z,15.67
2022-09-16T05:28:32.817Z,15.65
2022-09-16T05:29:27.780Z,15.71
2022-09-16T05:30:27.781Z,15.78
2022-09-16T05:31:27.767Z,15.75
2022-09-16T05:32:27.751Z,15.76
2022-09-16T05:33:27.738Z,15.83
2022-09-16T05:34:27.726Z,15.80
2022-09-16T05:35:27.715Z,15.83
2022-09-16T05:36:27.837Z,15.83
2022-09-16T05:37:27.694Z,15.80
2022-09-16T05:38:27.681Z,15.76
2022-09-16T05:39:32.691Z,15.82
2022-09-16T05:40:27.737Z,15.84
2022-09-16T05:41:27.663Z,15.82
2022-09-16T05:42:27.650Z,15.89
2022-09-16T05:43:27.628Z,15.86
2022-09-16T05:44:27.661Z,15.94
2022-09-16T05:45:32.064Z,15.96
2022-09-16T05:46:27.660Z,15.87
2022-09-16T05:47:27.591Z,15.93
2022-09-16T05:48:27.574Z,16.00
2022-09-16T05:49:27.556Z,16.08
2022-09-16T05:50:32.569Z,16.11
2022-09-16T05:51:27.534Z,16.15
2022-09-16T05:52:27.657Z,16.28
2022-09-16T05:53:27.570Z,16.24
2022-09-16T05:54:27.505Z,16.23
2022-09-16T05:55:27.496Z,16.34
2022-09-16T05:56:27.496Z,16.34
2022-09-16T05:57:27.509Z,16.41
2022-09-16T05:58:27.502Z,16.45
2022-09-16T05:59:27.445Z,16.34
2022-09-16T06:00:27.449Z,16.53
2022-09-16T06:01:32.533Z,16.43
2022-09-16T06:02:27.465Z,16.52
2022-09-16T06:03:27.411Z,16.35
2022-09-16T06:04:27.397Z,16.31
2022-09-16T06:05:27.383Z,16.39
2022-09-16T06:06:27.371Z,16.42
2022-09-16T06:07:27.379Z,16.46
2022-09-16T06:08:27.471Z,16.48
2022-09-16T06:09:27.347Z,16.57
2022-09-16T06:10:27.333Z,16.53
2022-09-16T06:11:27.324Z,16.50
2022-09-16T06:12:32.349Z,16.52
2022-09-16T06:13:27.305Z,16.38
2022-09-16T06:14:27.281Z,16.42
2022-09-16T06:15:27.314Z,16.35
2022-09-16T06:16:27.305Z,16.41
2022-09-16T06:17:27.264Z,16.39
2022-09-16T06:18:27.307Z,16.39
2022-09-16T06:19:27.228Z,16.31
2022-09-16T06:20:27.214Z,16.30
2022-09-16T06:21:27.251Z,16.28
2022-09-16T06:22:27.191Z,16.28
2022-09-16T06:23:32.318Z,16.31
2022-09-16T06:24:27.170Z,16.30
2022-09-16T06:25:27.161Z,16.31
2022-09-16T06:26:27.161Z,16.27
2022-09-16T06:27:27.135Z,16.31
2022-09-16T06:28:27.125Z,16.17
2022-09-16T06:29:27.115Z,16.17
2022-09-16T06:30:30.983Z,16.07
2022-09-16T06:31:27.148Z,16.08
2022-09-16T06:32:27.092Z,16.08
2022-09-16T06:33:27.080Z,16.14
2022-09-16T06:34:32.086Z,16.15
2022-09-16T06:35:27.044Z,16.14
2022-09-16T06:36:27.049Z,16.08
2022-09-16T06:37:27.028Z,16.17
2022-09-16T06:38:27.017Z,16.28
2022-09-16T06:39:27.122Z,16.23
2022-09-16T06:40:27.090Z,16.28
2022-09-16T06:41:27.035Z,16.31
2022-09-16T06:42:26.972Z,16.31
2022-09-16T06:43:26.977Z,16.39
2022-09-16T06:44:26.946Z,16.39
2022-09-16T06:45:31.956Z,16.42
2022-09-16T06:46:27.123Z,16.41
2022-09-16T06:47:26.919Z,16.41
2022-09-16T06:48:26.905Z,16.31
2022-09-16T06:49:26.892Z,16.38
2022-09-16T06:50:26.941Z,16.42
2022-09-16T06:51:26.886Z,16.39
2022-09-16T06:52:26.857Z,16.41
2022-09-16T06:53:26.850Z,16.42
2022-09-16T06:54:26.893Z,16.33
2022-09-16T06:55:26.943Z,16.27
2022-09-16T06:56:31.844Z,16.31
2022-09-16T06:57:26.860Z,16.33
2022-09-16T06:58:26.794Z,16.24
2022-09-16T06:59:26.786Z,16.20
2022-09-16T07:00:26.827Z,16.14
2022-09-16T07:01:26.920Z,16.23
2022-09-16T07:02:26.819Z,16.23
2022-09-16T07:03:26.755Z,16.30
2022-09-16T07:04:26.722Z,16.27
2022-09-16T07:05:26.716Z,16.28
2022-09-16T07:06:49.616Z,16.31
2022-09-16T07:07:32.709Z,16.34
2022-09-16T07:08:26.676Z,16.21
2022-09-16T07:09:26.669Z,16.27
2022-09-16T07:10:26.654Z,16.24
2022-09-16T07:11:26.783Z,16.33
2022-09-16T07:12:26.637Z,16.35
2022-09-16T07:13:26.622Z,16.25
2022-09-16T07:14:26.609Z,16.28
2022-09-16T07:15:26.608Z,16.30
2022-09-16T07:16:26.802Z,16.25
2022-09-16T07:17:26.616Z,16.20
2022-09-16T07:18:31.586Z,16.21
2022-09-16T07:19:26.558Z,16.30
2022-09-16T07:20:26.542Z,16.27
2022-09-16T07:21:26.558Z,16.24
2022-09-16T07:22:26.529Z,16.30
2022-09-16T07:23:26.511Z,16.30
2022-09-16T07:24:26.498Z,16.31
2022-09-16T07:25:26.491Z,16.34
2022-09-16T07:26:26.477Z,16.33
2022-09-16T07:27:26.594Z,16.39
2022-09-16T07:28:26.464Z,16.23
2022-09-16T07:29:31.463Z,16.28
2022-09-16T07:30:26.484Z,16.31
2022-09-16T07:31:26.421Z,16.28
2022-09-16T07:32:26.433Z,16.27
2022-09-16T07:33:26.399Z,16.31
2022-09-16T07:34:26.401Z,16.38
2022-09-16T07:35:26.379Z,16.46
2022-09-16T07:36:26.363Z,16.38
2022-09-16T07:37:26.367Z,16.38
2022-09-16T07:38:26.342Z,16.43
2022-09-16T07:39:26.336Z,16.41
2022-09-16T07:40:31.509Z,16.42
2022-09-16T07:41:26.311Z,16.42
2022-09-16T07:42:26.309Z,16.48
2022-09-16T07:43:26.405Z,16.48
2022-09-16T07:44:26.278Z,16.45
2022-09-16T07:45:26.275Z,16.39
2022-09-16T07:46:26.334Z,16.43
2022-09-16T07:47:26.298Z,16.43
2022-09-16T07:48:26.230Z,16.33
2022-09-16T07:49:26.228Z,16.38
2022-09-16T07:50:26.214Z,16.46
2022-09-16T07:51:31.225Z,16.35
2022-09-16T07:52:26.208Z,16.35
2022-09-16T07:53:28.963Z,16.42
2022-09-16T07:54:26.163Z,16.39
2022-09-16T07:55:26.154Z,16.39
2022-09-16T07:56:26.148Z,16.38
2022-09-16T07:57:26.144Z,16.43
2022-09-16T07:58:26.120Z,16.50
2022-09-16T07:59:26.230Z,16.45
2022-09-16T08:00:26.120Z,16.38
2022-09-16T08:01:26.540Z,16.43
2022-09-16T08:02:34.932Z,16.33
2022-09-16T08:03:26.328Z,16.38
2022-09-16T08:04:26.056Z,16.31
2022-09-16T08:05:26.041Z,16.41
2022-09-16T08:06:26.034Z,16.35
2022-09-16T08:07:26.030Z,16.30
2022-09-16T08:08:26.190Z,16.34
2022-09-16T08:09:44.258Z,16.33
2022-09-16T08:10:30.404Z,16.31
2022-09-16T08:11:26.998Z,16.30
2022-09-16T08:12:25.972Z,16.39
2022-09-16T08:13:30.975Z,16.39
2022-09-16T08:14:25.941Z,16.38
2022-09-16T08:15:26.067Z,16.28
2022-09-16T08:16:25.983Z,16.28
2022-09-16T08:17:27.145Z,16.38
2022-09-16T08:18:25.918Z,16.33
2022-09-16T08:19:26.024Z,16.39
2022-09-16T08:20:26.170Z,16.46
2022-09-16T08:21:25.989Z,16.31
2022-09-16T08:22:25.923Z,16.34
2022-09-16T08:23:25.840Z,16.46
2022-09-16T08:24:30.851Z,16.50
2022-09-16T08:25:25.831Z,16.53
2022-09-16T08:26:25.836Z,16.49
2022-09-16T08:27:25.810Z,16.50
2022-09-16T08:28:25.789Z,16.52
2022-09-16T08:29:25.776Z,16.53
2022-09-16T08:30:25.761Z,16.56
2022-09-16T08:31:25.997Z,16.57
2022-09-16T08:32:25.748Z,16.52
2022-09-16T08:33:25.731Z,16.52
2022-09-16T08:34:25.716Z,16.57
2022-09-16T08:35:30.726Z,16.58
2022-09-16T08:36:25.709Z,16.57
2022-09-16T08:37:25.698Z,16.60
2022-09-16T08:38:25.679Z,16.58
2022-09-16T08:39:25.663Z,16.58
2022-09-16T08:40:25.962Z,16.66
2022-09-16T08:41:25.640Z,16.64
2022-09-16T08:42:25.740Z,16.56
2022-09-16T08:43:25.620Z,16.49
2022-09-16T08:44:25.608Z,16.48
2022-09-16T08:45:25.625Z,16.56
2022-09-16T08:46:30.721Z,16.49
2022-09-16T08:47:25.572Z,16.52
2022-09-16T08:48:28.617Z,16.49
2022-09-16T08:49:25.564Z,16.57
2022-09-16T08:50:25.543Z,16.53
2022-09-16T08:51:25.528Z,16.56
2022-09-16T08:52:25.516Z,16.64
2022-09-16T08:53:25.520Z,16.71
2022-09-16T08:54:25.521Z,16.68
2022-09-16T08:55:25.517Z,16.76
2022-09-16T08:56:25.472Z,16.73
2022-09-16T08:57:30.499Z,16.93
2022-09-16T08:58:25.453Z,17.14
2022-09-16T08:59:25.479Z,17.00
2022-09-16T09:00:25.452Z,17.00
2022-09-16T09:01:25.756Z,17.00
2022-09-16T09:02:26.139Z,17.03
2022-09-16T09:03:25.470Z,16.98
2022-09-16T09:04:25.390Z,17.00
2022-09-16T09:05:25.370Z,16.96
2022-09-16T09:06:25.372Z,17.03
2022-09-16T09:07:25.352Z,16.94
2022-09-16T09:08:30.380Z,16.98
2022-09-16T09:09:25.335Z,16.97
2022-09-16T09:10:25.323Z,16.96
2022-09-16T09:11:25.305Z,16.94
2022-09-16T09:12:26.409Z,16.96
2022-09-16T09:13:25.908Z,17.06
2022-09-16T09:14:25.271Z,17.07
2022-09-16T09:15:28.279Z,17.12
2022-09-16T09:16:25.363Z,17.15
2022-09-16T09:17:25.247Z,17.19
2022-09-16T09:18:25.381Z,17.19
2022-09-16T09:19:30.282Z,17.22
2022-09-16T09:20:25.203Z,17.26
2022-09-16T09:21:27.246Z,17.38
2022-09-16T09:22:25.181Z,17.25
2022-09-16T09:23:25.202Z,17.30
2022-09-16T09:24:25.170Z,17.36
2022-09-16T09:25:25.169Z,17.30
2022-09-16T09:26:25.140Z,17.33
2022-09-16T09:27:25.136Z,17.33
2022-09-16T09:28:25.132Z,17.40
2022-09-16T09:29:25.106Z,17.44
2022-09-16T09:30:30.117Z,17.51
2022-09-16T09:31:25.158Z,17.48
2022-09-16T09:32:25.076Z,17.48
2022-09-16T09:33:44.903Z,17.51
2022-09-16T09:35:35.016Z,17.46
2022-09-16T09:36:34.850Z,17.44
2022-09-16T09:37:34.837Z,17.48
2022-09-16T09:38:34.834Z,17.51
2022-09-16T09:39:34.826Z,17.51
2022-09-16T09:40:34.941Z,17.51
2022-09-16T09:41:34.792Z,17.56
2022-09-16T09:42:34.784Z,17.54
2022-09-16T09:43:34.818Z,17.43
2022-09-16T09:44:34.762Z,17.46
2022-09-16T09:45:34.749Z,17.40
2022-09-16T09:46:39.760Z,17.43
2022-09-16T09:47:34.724Z,17.48
2022-09-16T09:48:34.746Z,17.55
2022-09-16T09:49:34.756Z,17.56
2022-09-16T09:50:34.690Z,17.49
2022-09-16T09:51:34.810Z,17.56
2022-09-16T09:52:34.671Z,17.63
2022-09-16T09:53:34.673Z,17.75
2022-09-16T09:54:34.647Z,17.74
2022-09-16T09:55:34.635Z,17.74
2022-09-16T09:56:34.628Z,17.72
2022-09-16T09:57:39.634Z,17.63
2022-09-16T09:58:34.609Z,17.64
2022-09-16T09:59:34.589Z,17.56
2022-09-16T10:00:34.620Z,17.58
2022-09-16T10:01:34.570Z,17.54
2022-09-16T10:02:34.553Z,17.62
2022-09-16T10:03:34.571Z,17.64
2022-09-16T10:04:34.534Z,17.63
2022-09-16T10:05:34.563Z,17.62
2022-09-16T10:06:34.511Z,17.55
2022-09-16T10:07:34.624Z,17.62
2022-09-16T10:08:39.553Z,17.63
2022-09-16T10:09:34.490Z,17.62
2022-09-16T10:10:34.463Z,17.77
2022-09-16T10:11:34.454Z,17.72
2022-09-16T10:12:34.440Z,17.66
2022-09-16T10:13:34.438Z,17.56
2022-09-16T10:14:34.419Z,17.55
2022-09-16T10:15:34.418Z,17.63
2022-09-16T10:16:34.456Z,17.59
2022-09-16T10:17:34.385Z,17.68
2022-09-16T10:18:34.383Z,17.68
2022-09-16T10:19:39.385Z,17.78
2022-09-16T10:20:34.369Z,17.72
2022-09-16T10:21:34.373Z,17.64
2022-09-16T10:22:34.325Z,17.66
2022-09-16T10:23:34.455Z,17.71
2022-09-16T10:24:34.301Z,17.78
2022-09-16T10:25:34.296Z,17.74
2022-09-16T10:26:34.279Z,17.78
2022-09-16T10:27:34.269Z,17.90
2022-09-16T10:28:34.269Z,17.89
2022-09-16T10:29:34.250Z,17.96
2022-09-16T10:30:39.274Z,17.93
2022-09-16T10:31:34.741Z,18.07
2022-09-16T10:32:34.213Z,18.08
2022-09-16T10:33:34.223Z,18.02
2022-09-16T10:34:34.222Z,17.92
2022-09-16T10:35:34.178Z,17.90
2022-09-16T10:36:34.172Z,17.86
2022-09-16T10:37:34.153Z,17.92
2022-09-16T10:38:34.156Z,17.89
2022-09-16T10:39:34.344Z,17.93
2022-09-16T10:40:34.183Z,18.14
2022-09-16T10:41:39.132Z,18.27
2022-09-16T10:42:34.102Z,18.11
2022-09-16T10:43:34.102Z,17.95
2022-09-16T10:44:34.074Z,18.07
2022-09-16T10:45:34.067Z,18.33
2022-09-16T10:46:34.116Z,18.41
2022-09-16T10:47:34.126Z,18.42
2022-09-16T10:48:34.054Z,18.47
2022-09-16T10:49:34.030Z,18.41
2022-09-16T10:50:34.041Z,18.33
2022-09-16T10:51:33.995Z,18.41
2022-09-16T10:52:39.004Z,18.33
2022-09-16T10:53:37.728Z,18.33
2022-09-16T10:54:34.957Z,18.32
2022-09-16T10:55:34.078Z,18.41
2022-09-16T10:56:33.934Z,18.45
2022-09-16T10:57:33.931Z,18.36
2022-09-16T10:58:33.928Z,18.37
2022-09-16T10:59:33.926Z,18.50
2022-09-16T11:00:34.000Z,18.41
2022-09-16T11:01:35.022Z,18.35
2022-09-16T11:02:33.869Z,18.30
2022-09-16T11:03:38.894Z,18.29
2022-09-16T11:04:33.878Z,18.30
2022-09-16T11:05:33.871Z,18.37
2022-09-16T11:06:33.822Z,18.47
2022-09-16T11:07:33.811Z,18.65
2022-09-16T11:08:33.797Z,18.73
2022-09-16T11:09:33.806Z,18.87
2022-09-16T11:10:33.773Z,19.07
2022-09-16T11:11:33.897Z,18.87
2022-09-16T11:12:33.750Z,18.81
2022-09-16T11:13:33.752Z,18.81
2022-09-16T11:14:38.763Z,18.63
2022-09-16T11:15:33.718Z,18.62
2022-09-16T11:16:33.777Z,18.70
2022-09-16T11:17:33.695Z,18.70
2022-09-16T11:18:33.745Z,18.69
2022-09-16T11:19:33.680Z,18.75
2022-09-16T11:20:33.676Z,18.85
2022-09-16T11:21:33.695Z,18.84
2022-09-16T11:22:33.635Z,18.80
2022-09-16T11:23:33.625Z,18.98
2022-09-16T11:24:33.623Z,19.21
2022-09-16T11:25:38.633Z,19.43
2022-09-16T11:26:33.631Z,19.56
2022-09-16T11:27:33.713Z,19.77
2022-09-16T11:28:33.567Z,19.99
2022-09-16T11:29:33.586Z,20.20
2022-09-16T11:30:33.546Z,20.41
2022-09-16T11:31:33.595Z,20.51
2022-09-16T11:32:33.630Z,20.47
2022-09-16T11:33:33.524Z,20.66
2022-09-16T11:34:33.524Z,20.80
2022-09-16T11:35:33.489Z,20.72
2022-09-16T11:36:38.712Z,20.66
2022-09-16T11:37:33.492Z,20.52
2022-09-16T11:38:33.458Z,20.42
2022-09-16T11:39:33.484Z,20.31
2022-09-16T11:40:33.540Z,20.36
2022-09-16T11:41:33.420Z,20.33
2022-09-16T11:42:33.408Z,20.35
2022-09-16T11:43:33.533Z,20.32
2022-09-16T11:44:33.403Z,20.51
2022-09-16T11:45:33.378Z,20.54
2022-09-16T11:46:33.417Z,20.33
2022-09-16T11:47:40.758Z,20.17
2022-09-16T11:48:33.349Z,20.17
2022-09-16T11:49:33.341Z,19.80
2022-09-16T11:50:33.318Z,19.63
2022-09-16T11:51:33.315Z,19.62
2022-09-16T11:52:33.306Z,19.56
2022-09-16T11:53:36.432Z,19.63
2022-09-16T11:54:33.299Z,19.65
2022-09-16T11:55:33.265Z,19.88
2022-09-16T11:56:33.257Z,19.99
2022-09-16T11:57:33.246Z,20.06
2022-09-16T11:58:38.386Z,20.42
2022-09-16T11:59:33.234Z,20.92
2022-09-16T12:00:33.214Z,21.03
2022-09-16T12:01:33.294Z,21.42
2022-09-16T12:02:33.458Z,21.58
2022-09-16T12:03:33.177Z,21.71
2022-09-16T12:04:35.023Z,21.34
2022-09-16T12:05:33.154Z,21.03
2022-09-16T12:06:33.140Z,20.85
2022-09-16T12:07:33.131Z,20.54
2022-09-16T12:08:33.117Z,20.33
2022-09-16T12:09:38.163Z,20.10
2022-09-16T12:10:33.095Z,19.96
2022-09-16T12:11:33.133Z,19.71
2022-09-16T12:12:33.071Z,19.71
2022-09-16T12:13:33.087Z,19.73
2022-09-16T12:14:33.180Z,19.76
2022-09-16T12:16:33.031Z,19.99
2022-09-16T12:17:33.134Z,19.96
2022-09-16T12:18:33.004Z,20.01
2022-09-16T12:19:33.027Z,20.13
2022-09-16T12:20:38.025Z,20.28
2022-09-16T12:21:32.969Z,20.20
2022-09-16T12:22:32.956Z,20.32
2022-09-16T12:23:32.960Z,20.74
2022-09-16T12:24:32.938Z,20.57
2022-09-16T12:25:33.393Z,20.41
2022-09-16T12:26:32.911Z,20.85
2022-09-16T12:27:33.544Z,21.58
2022-09-16T12:28:32.889Z,22.06
2022-09-16T12:29:32.894Z,22.46
2022-09-16T12:30:33.005Z,23.07
2022-09-16T12:31:37.903Z,23.50
2022-09-16T12:32:32.844Z,23.83
2022-09-16T12:33:32.898Z,24.30
2022-09-16T12:34:32.826Z,24.30
2022-09-16T12:35:32.824Z,24.62
2022-09-16T12:36:32.815Z,24.85
2022-09-16T12:37:32.791Z,25.00
2022-09-16T12:38:32.787Z,24.83
2022-09-16T12:39:32.766Z,24.87
2022-09-16T12:40:32.846Z,25.23
2022-09-16T12:41:32.743Z,25.55
2022-09-16T12:42:37.758Z,25.51
2022-09-16T12:43:32.724Z,25.21
2022-09-16T12:44:34.885Z,24.31
2022-09-16T12:45:32.710Z,23.36
2022-09-16T12:46:32.824Z,22.39
2022-09-16T12:47:32.678Z,22.06
2022-09-16T12:48:32.696Z,21.58
2022-09-16T12:49:32.659Z,21.22
2022-09-16T12:50:32.662Z,21.04
2022-09-16T12:51:32.636Z,20.94
2022-09-16T12:52:32.648Z,20.82
2022-09-16T12:53:37.646Z,20.79
2022-09-16T12:54:45.768Z,20.64
2022-09-16T12:55:33.602Z,20.47
2022-09-16T12:56:32.582Z,20.41
2022-09-16T12:57:32.566Z,20.31
2022-09-16T12:58:32.555Z,20.18
2022-09-16T12:59:32.546Z,20.01
2022-09-16T13:00:32.553Z,19.88
2022-09-16T13:01:32.639Z,19.81
2022-09-16T13:02:32.777Z,19.88
2022-09-16T13:03:32.610Z,19.91
2022-09-16T13:04:37.511Z,19.84
2022-09-16T13:05:33.541Z,19.87
2022-09-16T13:06:32.513Z,19.94
2022-09-16T13:07:33.038Z,19.92
2022-09-16T13:08:32.442Z,19.81
2022-09-16T13:09:32.429Z,19.77
2022-09-16T13:10:53.772Z,19.77
2022-09-16T13:12:44.051Z,19.68
2022-09-16T13:13:33.388Z,19.55
2022-09-16T13:14:32.380Z,19.50
2022-09-16T13:15:37.806Z,19.46
2022-09-16T13:16:32.529Z,19.43
2022-09-16T13:17:32.339Z,19.44
2022-09-16T13:18:33.471Z,19.29
2022-09-16T13:19:32.318Z,19.28
2022-09-16T13:20:32.319Z,19.25
2022-09-16T13:21:32.294Z,19.19
2022-09-16T13:22:32.290Z,19.14
2022-09-16T13:23:32.273Z,19.08
2022-09-16T13:24:32.263Z,19.11
2022-09-16T13:25:32.260Z,18.99
2022-09-16T13:26:37.265Z,18.92
2022-09-16T13:27:32.256Z,18.99
2022-09-16T13:28:32.217Z,18.95
2022-09-16T13:29:32.209Z,18.84
2022-09-16T13:30:32.204Z,18.84
2022-09-16T13:31:34.390Z,18.92
2022-09-16T13:32:32.181Z,18.90
2022-09-16T13:33:32.160Z,18.82
2022-09-16T13:34:32.278Z,18.80
2022-09-16T13:35:32.158Z,18.69
2022-09-16T13:36:32.129Z,18.58
2022-09-16T13:37:37.138Z,18.62
2022-09-16T13:38:32.109Z,18.47
2022-09-16T13:39:32.094Z,18.50
2022-09-16T13:40:32.137Z,18.39
2022-09-16T13:41:32.078Z,18.41
2022-09-16T13:42:32.059Z,18.35
2022-09-16T13:43:32.046Z,18.21
2022-09-16T13:44:32.035Z,18.10
2022-09-16T13:45:32.023Z,17.84
2022-09-16T13:46:32.161Z,17.66
2022-09-16T13:47:32.003Z,17.56
2022-09-16T13:48:37.012Z,17.44
2022-09-16T13:49:31.978Z,17.54
2022-09-16T13:50:32.105Z,17.52
2022-09-16T13:51:36.011Z,17.51
2022-09-16T13:52:31.943Z,17.41
2022-09-16T13:53:31.936Z,17.48
2022-09-16T13:54:33.109Z,17.43
2022-09-16T13:55:32.910Z,17.37
2022-09-16T13:56:31.976Z,17.40
2022-09-16T13:57:31.890Z,17.36
2022-09-16T13:58:31.878Z,17.40
2022-09-16T13:59:36.888Z,17.40
2022-09-16T14:00:35.389Z,17.40
2022-09-16T14:01:42.201Z,17.38
2022-09-16T14:02:32.937Z,17.25
2022-09-16T14:03:31.862Z,17.25
2022-09-16T14:04:31.810Z,17.18
2022-09-16T14:05:31.821Z,17.14
2022-09-16T14:06:31.914Z,17.12
2022-09-16T14:07:31.774Z,17.16
2022-09-16T14:08:31.766Z,17.11
2022-09-16T14:09:31.752Z,17.16
2022-09-16T14:10:36.772Z,17.22
2022-09-16T14:11:31.763Z,17.37
2022-09-16T14:12:31.719Z,17.36
2022-09-16T14:13:31.709Z,17.43
2022-09-16T14:14:48.069Z,17.55
2022-09-16T14:15:32.731Z,17.58
2022-09-16T14:16:31.685Z,17.78
2022-09-16T14:17:31.669Z,17.70
2022-09-16T14:18:31.658Z,17.70
2022-09-16T14:19:31.641Z,17.72
2022-09-16T14:20:31.631Z,17.74
2022-09-16T14:21:36.763Z,17.71
2022-09-16T14:22:31.615Z,17.71
2022-09-16T14:23:31.598Z,17.68
2022-09-16T14:24:31.590Z,17.68
2022-09-16T14:25:31.572Z,17.64
2022-09-16T14:26:31.573Z,17.72
2022-09-16T14:27:31.564Z,17.79
2022-09-16T14:28:32.354Z,17.78
2022-09-16T14:29:31.528Z,17.78
2022-09-16T14:30:31.517Z,17.74
2022-09-16T14:31:31.599Z,17.84
2022-09-16T14:32:36.520Z,17.75
2022-09-16T14:33:31.482Z,17.82
2022-09-16T14:34:31.473Z,17.68
2022-09-16T14:35:31.460Z,17.62
2022-09-16T14:36:31.463Z,17.62
2022-09-16T14:37:31.567Z,17.54
2022-09-16T14:38:44.944Z,17.46
2022-09-16T14:39:32.439Z,17.44
2022-09-16T14:40:31.502Z,17.41
2022-09-16T14:41:31.531Z,17.41
2022-09-16T14:42:31.384Z,17.30
2022-09-16T14:43:36.394Z,17.33
2022-09-16T14:44:31.364Z,17.30
2022-09-16T14:45:31.367Z,17.23
2022-09-16T14:46:31.358Z,17.16
2022-09-16T14:47:50.075Z,17.11
2022-09-16T14:48:32.346Z,17.00
2022-09-16T14:49:31.304Z,16.96
2022-09-16T14:50:31.293Z,16.93
2022-09-16T14:51:31.306Z,16.85
2022-09-16T14:52:31.326Z,16.67
2022-09-16T14:53:35.772Z,16.56
2022-09-16T14:54:37.269Z,16.57
2022-09-16T14:55:31.309Z,16.49
2022-09-16T14:56:31.226Z,16.48
2022-09-16T14:57:31.224Z,16.39
2022-09-16T14:58:31.227Z,16.30
2022-09-16T14:59:31.189Z,16.31
2022-09-16T15:00:31.183Z,16.30
2022-09-16T15:01:31.220Z,16.27
2022-09-16T15:02:31.223Z,16.25
2022-09-16T15:03:31.144Z,16.34
2022-09-16T15:04:31.144Z,16.33
2022-09-16T15:05:36.144Z,16.15
2022-09-16T15:06:31.118Z,16.14
2022-09-16T15:07:32.630Z,16.02
2022-09-16T15:08:31.089Z,16.07
2022-09-16T15:09:31.196Z,16.01
2022-09-16T15:10:44.604Z,16.08
2022-09-16T15:11:48.429Z,16.05
2022-09-16T15:12:32.056Z,16.07
2022-09-16T15:13:31.032Z,16.04
2022-09-16T15:14:31.022Z,16.08
2022-09-16T15:15:31.039Z,16.11
2022-09-16T15:16:36.020Z,16.17
2022-09-16T15:17:30.995Z,16.20
2022-09-16T15:18:30.975Z,16.21
2022-09-16T15:19:30.963Z,16.30
2022-09-16T15:20:30.955Z,16.25
2022-09-16T15:21:30.951Z,16.30
2022-09-16T15:22:30.930Z,16.31
2022-09-16T15:23:30.917Z,16.35
2022-09-16T15:24:30.922Z,16.38
2022-09-16T15:25:31.012Z,16.31
2022-09-16T15:26:30.897Z,16.35
2022-09-16T15:27:35.894Z,16.34
2022-09-16T15:28:30.863Z,16.45
2022-09-16T15:29:30.868Z,16.42
2022-09-16T15:30:30.840Z,16.38
2022-09-16T15:31:30.938Z,16.34
2022-09-16T15:32:30.832Z,16.49
2022-09-16T15:33:32.541Z,16.48
2022-09-16T15:34:30.946Z,16.52
2022-09-16T15:35:30.781Z,16.57
2022-09-16T15:36:30.772Z,16.53
2022-09-16T15:37:30.770Z,16.56
2022-09-16T15:38:35.770Z,16.48
2022-09-16T15:39:30.738Z,16.56
2022-09-16T15:40:30.799Z,16.58
2022-09-16T15:41:30.831Z,16.52
2022-09-16T15:42:30.714Z,16.58
2022-09-16T15:43:30.702Z,16.68
2022-09-16T15:44:33.901Z,16.70
2022-09-16T15:45:31.667Z,16.64
2022-09-16T15:46:30.696Z,16.70
2022-09-16T15:47:30.654Z,16.70
2022-09-16T15:48:30.643Z,16.66
2022-09-16T15:49:35.649Z,16.70
2022-09-16T15:50:30.612Z,16.75
2022-09-16T15:51:30.599Z,16.79
2022-09-16T15:52:30.604Z,16.78
2022-09-16T15:53:30.581Z,16.75
2022-09-16T15:54:30.608Z,16.49
2022-09-16T15:55:30.559Z,16.60
2022-09-16T15:56:30.568Z,16.52
2022-09-16T15:57:30.678Z,16.49
2022-09-16T15:58:30.529Z,16.41
2022-09-16T15:59:30.509Z,16.39
2022-09-16T16:00:35.523Z,16.42
2022-09-16T16:01:30.641Z,16.34
2022-09-16T16:02:30.518Z,16.33
2022-09-16T16:03:30.463Z,16.33
2022-09-16T16:04:30.501Z,16.31
2022-09-16T16:05:30.443Z,16.35
2022-09-16T16:06:30.434Z,16.43
2022-09-16T16:07:30.432Z,16.46
2022-09-16T16:08:30.410Z,16.53
2022-09-16T16:09:30.402Z,16.52
2022-09-16T16:10:30.393Z,16.58
2022-09-16T16:11:35.399Z,16.64
2022-09-16T16:12:30.378Z,16.52
2022-09-16T16:13:30.466Z,16.66
2022-09-16T16:14:30.344Z,16.73
2022-09-16T16:15:30.402Z,16.63
2022-09-16T16:16:30.321Z,16.63
2022-09-16T16:17:30.318Z,16.73
2022-09-16T16:18:30.318Z,16.81
2022-09-16T16:19:30.303Z,16.79
2022-09-16T16:20:30.273Z,16.76
2022-09-16T16:21:30.314Z,16.76
2022-09-16T16:22:35.443Z,16.73
2022-09-16T16:23:30.238Z,16.82
2022-09-16T16:24:30.229Z,16.85
2022-09-16T16:25:30.321Z,16.78
2022-09-16T16:26:30.206Z,16.86
2022-09-16T16:27:30.204Z,16.89
2022-09-16T16:28:30.194Z,16.93
2022-09-16T16:29:30.284Z,16.82
2022-09-16T16:30:30.160Z,16.81
2022-09-16T16:31:30.190Z,16.75
2022-09-16T16:32:30.155Z,16.73
2022-09-16T16:33:35.147Z,16.81
2022-09-16T16:34:30.115Z,16.68
2022-09-16T16:35:30.101Z,16.70
2022-09-16T16:36:30.093Z,16.52
2022-09-16T16:37:47.106Z,16.63
2022-09-16T16:38:31.085Z,16.53
2022-09-16T16:39:30.059Z,16.52
2022-09-16T16:40:30.140Z,16.53
2022-09-16T16:41:30.033Z,16.49
2022-09-16T16:42:30.058Z,16.39
2022-09-16T16:43:30.010Z,16.15
2022-09-16T16:44:35.145Z,16.11
2022-09-16T16:45:30.006Z,15.92
2022-09-16T16:46:30.006Z,15.80
2022-09-16T16:47:29.979Z,15.68
2022-09-16T16:48:29.954Z,15.64
2022-09-16T16:49:29.941Z,15.59
2022-09-16T16:50:29.932Z,15.53
2022-09-16T16:51:29.919Z,15.54
2022-09-16T16:52:29.917Z,15.43
2022-09-16T16:53:29.901Z,15.39
2022-09-16T16:54:29.886Z,15.47
2022-09-16T16:55:34.897Z,15.47